createdAt,value
2019-01-09T00:00:01.333Z,95.63
2019-01-09T00:05:01.594Z,95.74
2019-01-09T00:10:01.819Z,96.05
2019-01-09T00:15:02.061Z,95.95
2019-01-09T00:20:01.497Z,96.02
2019-01-09T00:25:01.774Z,96.02
2019-01-09T00:30:02.035Z,97.67
2019-01-09T00:35:01.339Z,97.03
2019-01-09T00:40:01.610Z,97.73
2019-01-09T00:45:01.905Z,97.85
2019-01-09T00:50:02.170Z,98.51
2019-01-09T00:55:01.433Z,96.33
2019-01-09T01:00:01.725Z,96.31
2019-01-09T01:05:01.994Z,96.43
2019-01-09T01:10:01.277Z,96.49
2019-01-09T01:15:01.517Z,96.41
2019-01-09T01:20:01.784Z,96.59
2019-01-09T01:25:02.030Z,96.36
2019-01-09T01:30:01.351Z,96.09
2019-01-09T01:35:01.649Z,98.12
2019-01-09T01:40:01.939Z,97.68
2019-01-09T01:45:01.376Z,97.95
2019-01-09T01:50:01.632Z,98.6
2019-01-09T01:55:01.955Z,98.45
2019-01-09T02:00:01.260Z,98.43
2019-01-09T02:05:01.623Z,98.28
2019-01-09T02:10:01.888Z,97.66
2019-01-09T02:15:02.122Z,98.04
2019-01-09T02:20:01.373Z,97.67
2019-01-09T02:25:01.631Z,97.55
2019-01-09T02:30:01.923Z,96.83
2019-01-09T02:35:01.266Z,97.95
2019-01-09T02:40:01.583Z,96.85
2019-01-09T02:45:01.979Z,97.02
2019-01-09T02:50:01.262Z,96.46
2019-01-09T02:55:01.591Z,96.19
2019-01-09T03:00:01.920Z,96.36
2019-01-09T03:05:01.292Z,95.57
2019-01-09T03:10:01.587Z,94.99
2019-01-09T03:15:01.882Z,96.13
2019-01-09T03:20:02.181Z,95.84
2019-01-09T03:25:01.459Z,95.42
2019-01-09T03:30:01.690Z,95.84
2019-01-09T03:35:01.960Z,95.79
2019-01-09T03:40:01.506Z,95.64
2019-01-09T03:45:01.804Z,96.67
2019-01-09T03:50:02.100Z,97.74
2019-01-09T03:55:01.372Z,96.79
2019-01-09T04:00:01.742Z,97.98
2019-01-09T04:05:02.040Z,98.59
2019-01-09T04:10:01.324Z,95.51
2019-01-09T04:15:01.657Z,97.89
2019-01-09T04:20:02.011Z,97.77
2019-01-09T04:25:01.267Z,97.54
2019-01-09T04:30:01.566Z,98.25
2019-01-09T04:35:01.896Z,97.75
2019-01-09T04:40:02.196Z,98.15
2019-01-09T04:45:01.536Z,97.4
2019-01-09T04:50:01.823Z,97.42
2019-01-09T04:55:02.094Z,97.69
2019-01-09T05:00:01.432Z,97.63
2019-01-09T05:05:01.714Z,97.15
2019-01-09T05:10:01.983Z,97.85
2019-01-09T05:15:01.260Z,97.51
2019-01-09T05:20:01.587Z,98.58
2019-01-09T05:25:01.862Z,97.92
2019-01-09T05:30:02.097Z,98.96
2019-01-09T05:35:01.487Z,98.54
2019-01-09T05:40:01.872Z,98.75
2019-01-09T05:45:01.200Z,98.92
2019-01-09T05:50:01.499Z,99.1
2019-01-09T05:55:01.784Z,97.34
2019-01-09T06:00:02.085Z,97.24
2019-01-09T06:05:01.380Z,96.98
2019-01-09T06:10:01.647Z,96.68
2019-01-09T06:15:01.958Z,96.79
2019-01-09T06:20:01.270Z,96.85
2019-01-09T06:25:01.574Z,97.02
2019-01-09T06:30:01.876Z,96.73
2019-01-09T06:35:02.195Z,99.18
2019-01-09T06:40:01.455Z,96.43
2019-01-09T06:45:01.775Z,98.64
2019-01-09T06:50:02.083Z,99.16
2019-01-09T06:55:01.445Z,99.04
2019-01-09T07:00:01.951Z,99.14
2019-01-09T07:05:01.266Z,100.01
2019-01-09T07:10:01.574Z,99.75
2019-01-09T07:15:01.891Z,98.31
2019-01-09T07:20:01.642Z,99.82
2019-01-09T07:25:01.950Z,99.69
2019-01-09T07:30:01.236Z,99.59
2019-01-09T07:35:01.642Z,99.85
2019-01-09T07:40:01.912Z,99.95
2019-01-09T07:45:01.202Z,98.34
2019-01-09T07:50:01.482Z,99.88
2019-01-09T07:55:01.788Z,99.77
2019-01-09T08:00:02.044Z,97.81
2019-01-09T08:05:01.369Z,97.92
2019-01-09T08:10:01.664Z,97.75
2019-01-09T08:15:01.946Z,97.54
2019-01-09T08:20:01.227Z,97.44
2019-01-09T08:25:01.512Z,97
2019-01-09T08:30:01.827Z,96.95
2019-01-09T08:35:02.131Z,97.05
2019-01-09T08:40:01.409Z,97.24
2019-01-09T08:45:01.709Z,99.2
2019-01-09T08:50:02.024Z,99.3
2019-01-09T08:55:01.357Z,99.4
2019-01-09T09:00:01.670Z,99.39
2019-01-09T09:05:02.045Z,99.29
2019-01-09T09:10:01.340Z,99.41
2019-01-09T09:15:01.649Z,99.24
2019-01-09T09:20:01.956Z,98.7
2019-01-09T09:25:01.405Z,98.76
2019-01-09T09:30:01.786Z,98.66
2019-01-09T09:35:02.100Z,97.95
2019-01-09T09:40:01.383Z,98.23
2019-01-09T09:45:01.695Z,98.15
2019-01-09T09:50:02.029Z,98.42
2019-01-09T09:55:01.457Z,98.4
2019-01-09T10:00:01.768Z,95.39
2019-01-09T10:05:02.126Z,97.18
2019-01-09T10:10:01.400Z,97.16
2019-01-09T10:15:01.693Z,97.88
2019-01-09T10:20:01.992Z,98.08
2019-01-09T10:25:01.360Z,97.31
2019-01-09T10:30:01.652Z,97.12
2019-01-09T10:35:01.938Z,97.56
2019-01-09T10:40:01.217Z,97.37
2019-01-09T10:45:01.523Z,97.28
2019-01-09T10:50:01.931Z,96.46
2019-01-09T10:55:01.222Z,95.47
2019-01-09T11:00:01.512Z,95.67
2019-01-09T11:05:01.814Z,95.18
2019-01-09T11:10:02.086Z,95.21
2019-01-09T11:15:01.458Z,95.51
2019-01-09T11:20:01.737Z,93.88
2019-01-09T11:25:02.107Z,94.17
2019-01-09T11:30:01.386Z,93.74
2019-01-09T11:35:01.700Z,94.64
2019-01-09T11:40:02.002Z,94.2
2019-01-09T11:45:01.295Z,92.58
2019-01-09T11:50:01.602Z,91.38
2019-01-09T11:55:01.894Z,90.29
2019-01-09T12:00:02.208Z,89.4
2019-01-09T12:05:01.465Z,87.66
2019-01-09T12:10:01.762Z,85.18
2019-01-09T12:15:02.050Z,80.4
2019-01-09T12:20:01.389Z,79.48
2019-01-09T12:25:01.683Z,78.08
2019-01-09T12:30:01.990Z,78.98
2019-01-09T12:35:01.328Z,79.94
2019-01-09T12:40:01.764Z,78.02
2019-01-09T12:45:02.055Z,74.97
2019-01-09T12:50:01.326Z,76.58
2019-01-09T12:55:01.634Z,76.85
2019-01-09T13:00:01.948Z,78.31
2019-01-09T13:05:01.226Z,77.95
2019-01-09T13:10:01.512Z,75.45
2019-01-09T13:15:01.808Z,74.39
2019-01-09T13:20:02.122Z,75.31
2019-01-09T13:25:01.402Z,74.89
2019-01-09T13:30:01.698Z,74.99
2019-01-09T13:35:02.012Z,74.63
2019-01-09T13:40:01.310Z,75.06
2019-01-09T13:45:01.601Z,75.7
2019-01-09T13:50:02.073Z,75.87
2019-01-09T13:55:01.572Z,73.63
2019-01-09T14:00:01.889Z,74.95
2019-01-09T14:05:03.932Z,71.54
2019-01-09T14:10:01.206Z,71.61
2019-01-09T14:15:01.508Z,71.2
2019-01-09T14:20:01.866Z,72.27
2019-01-09T14:25:02.114Z,72.05
2019-01-09T14:30:01.482Z,72.12
2019-01-09T14:35:01.934Z,72.46
2019-01-09T14:40:01.249Z,71.87
2019-01-09T14:45:01.582Z,72.11
2019-01-09T14:50:02.146Z,71.98
2019-01-09T14:55:01.417Z,73.58
2019-01-09T15:00:01.712Z,73.57
2019-01-09T15:05:02.003Z,74.46
2019-01-09T15:10:01.353Z,74.66
2019-01-09T15:15:01.682Z,75.11
2019-01-09T15:20:02.001Z,74.42
2019-01-09T15:25:01.285Z,74.28
2019-01-09T15:30:01.638Z,74.83
2019-01-09T15:35:01.954Z,73.91
2019-01-09T15:40:06.291Z,73.44
2019-01-09T15:45:01.624Z,72.52
2019-01-09T15:50:01.986Z,73.09
2019-01-09T15:55:01.284Z,70.47
2019-01-09T16:00:01.589Z,70.99
2019-01-09T16:05:01.886Z,72.01
2019-01-09T16:10:02.199Z,72.33
2019-01-09T16:15:01.471Z,72.23
2019-01-09T16:20:01.770Z,71.8
2019-01-09T16:25:02.118Z,73.04
2019-01-09T16:30:01.446Z,72.77
2019-01-09T16:35:01.773Z,71.69
2019-01-09T16:40:02.081Z,71.85
2019-01-09T16:45:01.404Z,73.25
2019-01-09T16:50:01.766Z,74.49
2019-01-09T16:55:02.051Z,74.72
2019-01-09T17:00:01.394Z,74.17
2019-01-09T17:05:01.773Z,74.84
2019-01-09T17:10:02.078Z,74.83
2019-01-09T17:15:01.378Z,75.41
2019-01-09T17:20:01.955Z,76.39
2019-01-09T17:25:01.902Z,75.76
2019-01-09T17:30:01.228Z,76.39
2019-01-09T17:35:01.601Z,75.46
2019-01-09T17:40:01.933Z,75.43
2019-01-09T17:45:01.224Z,77.22
2019-01-09T17:50:01.559Z,76.67
2019-01-09T17:55:01.866Z,76.49
2019-01-09T18:00:02.146Z,76.52
2019-01-09T18:05:01.644Z,77.36
2019-01-09T18:10:01.534Z,77.27
2019-01-09T18:15:01.858Z,77.84
2019-01-09T18:20:02.141Z,76.12
2019-01-09T18:25:01.432Z,77.68
2019-01-09T18:30:01.917Z,77.82
2019-01-09T18:35:01.374Z,78.26
2019-01-09T18:40:01.691Z,78.56
2019-01-09T18:45:02.000Z,78.67
2019-01-09T18:50:01.316Z,77.03
2019-01-09T18:55:01.606Z,77.79
2019-01-09T19:00:01.926Z,78.67
2019-01-09T19:05:01.256Z,79.07
2019-01-09T19:10:01.539Z,79.54
2019-01-09T19:15:01.845Z,79.19
2019-01-09T19:20:02.189Z,78.68
2019-01-09T19:25:01.479Z,78.16
2019-01-09T19:30:01.773Z,78.49
2019-01-09T19:35:02.403Z,77.41
2019-01-09T19:40:01.336Z,77.31
2019-01-09T19:45:01.601Z,77.89
2019-01-09T19:50:01.936Z,78.14
2019-01-09T19:55:01.223Z,77.85
2019-01-09T20:00:01.558Z,76.9
2019-01-09T20:05:01.842Z,76.81
2019-01-09T20:10:02.303Z,77.75
2019-01-09T20:15:01.809Z,78.14
2019-01-09T20:20:02.228Z,78.99
2019-01-09T20:25:01.700Z,79.75
2019-01-09T20:30:02.168Z,79.87
2019-01-09T20:35:01.715Z,79.51
2019-01-09T20:40:02.134Z,79.16
2019-01-09T20:45:01.516Z,78.95
2019-01-09T20:50:02.214Z,79.16
2019-01-09T20:55:01.932Z,78.77
2019-01-09T21:00:01.331Z,78.4
2019-01-09T21:05:01.702Z,78.99
2019-01-09T21:10:02.198Z,79.27
2019-01-09T21:15:01.729Z,78.43
2019-01-09T21:20:02.011Z,78.87
2019-01-09T21:25:01.247Z,78.76
2019-01-09T21:30:01.496Z,78.6
2019-01-09T21:35:01.764Z,78.64
2019-01-09T21:40:02.052Z,79.06
2019-01-09T21:45:01.277Z,79.76
2019-01-09T21:50:01.528Z,79.16
2019-01-09T21:55:01.753Z,78.59
2019-01-09T22:00:02.015Z,78.43
2019-01-09T22:05:01.253Z,79.4
2019-01-09T22:10:01.533Z,79.44
2019-01-09T22:15:01.790Z,79.35
2019-01-09T22:20:02.061Z,79.87
2019-01-09T22:25:01.314Z,80.44
2019-01-09T22:30:01.563Z,80.09
2019-01-09T22:35:01.996Z,79.57
2019-01-09T22:40:01.316Z,80.02
2019-01-09T22:45:01.635Z,79.89
2019-01-09T22:50:01.887Z,78.88
2019-01-09T22:55:02.148Z,79.45
2019-01-09T23:00:01.497Z,79.24
2019-01-09T23:05:01.756Z,79.55
2019-01-09T23:10:02.070Z,79.29
2019-01-09T23:15:01.478Z,79.06
2019-01-09T23:20:01.788Z,79.24
2019-01-09T23:25:02.062Z,79.27
2019-01-09T23:30:01.319Z,79
2019-01-09T23:35:01.627Z,79.28
2019-01-09T23:40:01.852Z,79.04
2019-01-09T23:45:02.129Z,79.3
2019-01-09T23:50:01.379Z,79.64
2019-01-09T23:55:01.698Z,79.9
